Time;durP1;ratioP1;P1;durP2;ratioP2;P2;SDS_P1;SDS_P2;PMS_P1;PMS_P2;Temp;Humidity;BMP_temperature;BMP_pressure;BME280_temperature;BME280_humidity;BME280_pressure;Samples;Min_cycle;Max_cycle;Signal;HPM_P1;HPM_P2
2022/11/08 00:02:28;;;;;;;;;;;;;;;20.34;49.40;100756.97;5115779;28;19963;-37
2022/11/08 00:04:54;;;;;;;;;;;;;;;20.36;49.38;100753.91;5125887;28;19980;-37
2022/11/08 00:15:37;;;;;;;;;;;;;;;20.34;49.34;100758.91;5112296;27;20014;-37
2022/11/08 00:18:03;;;;;;;;;;;;;;;20.34;49.49;100758.91;5125926;27;20027;-37
2022/11/08 00:20:29;;;;;;;;;;;;;;;20.34;49.40;100758.91;5126713;27;20025;-37
2022/11/08 00:22:54;;;;;;;;;;;;;;;20.32;49.49;100756.41;5124751;27;19931;-37
2022/11/08 00:25:20;;;;;;;;;;;;;;;20.34;49.46;100756.16;5124949;27;20302;-37
2022/11/08 00:27:45;;;;;;;;;;;;;;;20.34;49.44;100756.16;5127066;27;19927;-37
2022/11/08 00:30:11;;;;;;;;;;;;;;;20.34;49.48;100756.97;5128246;27;19948;-37
2022/11/08 00:32:36;;;;;;;;;;;;;;;20.34;49.48;100758.91;5122733;27;19927;-37
2022/11/08 00:35:02;;;;;;;;;;;;;;;20.34;49.34;100756.16;5124746;27;19923;-36
2022/11/08 00:37:28;;;;;;;;;;;;;;;20.34;49.54;100756.16;5124457;27;19930;-37
2022/11/08 00:39:53;;;;;;;;;;;;;;;20.33;49.61;100755.28;5124403;28;19927;-36
2022/11/08 00:42:19;;;;;;;;;;;;;;;20.34;49.39;100765.25;5126886;27;19927;-37
2022/11/08 00:44:44;;;;;;;;;;;;;;;20.32;49.58;100759.19;5126114;27;19931;-37
2022/11/08 00:47:10;;;;;;;;;;;;;;;20.33;49.45;100758.06;5126469;27;19927;-37
2022/11/08 00:49:35;;;;;;;;;;;;;;;20.34;49.49;100761.69;5127005;27;19931;-37
2022/11/08 00:52:01;;;;;;;;;;;;;;;20.34;49.62;100756.16;5126208;27;19935;-37
2022/11/08 00:54:27;;;;;;;;;;;;;;;20.33;49.42;100755.28;5125061;27;20241;-37
2022/11/08 00:56:52;;;;;;;;;;;;;;;20.34;49.50;100753.38;5123003;27;20325;-37
2022/11/08 00:59:18;;;;;;;;;;;;;;;20.34;49.37;100742.31;5127462;27;19931;-36
2022/11/08 01:01:43;;;;;;;;;;;;;;;20.33;49.48;100749.75;5105266;28;19930;-37
2022/11/08 01:04:10;;;;;;;;;;;;;;;20.33;49.49;100744.22;5123641;27;19927;-37
2022/11/08 01:06:35;;;;;;;;;;;;;;;20.33;49.51;100746.19;5109313;28;19924;-37
2022/11/08 01:09:01;;;;;;;;;;;;;;;20.33;49.58;100747.00;5110974;27;19971;-37
2022/11/08 01:11:26;;;;;;;;;;;;;;;20.34;49.38;100739.56;5129645;27;19934;-37
2022/11/08 01:13:55;;;;;;;;;;;;;;;20.32;49.41;100734.28;5126077;27;20294;-37
2022/11/08 01:16:21;;;;;;;;;;;;;;;20.34;49.47;100736.78;5125827;27;20355;-36
2022/11/08 01:18:47;;;;;;;;;;;;;;;20.34;49.48;100742.31;5124188;27;20008;-37
2022/11/08 01:21:13;;;;;;;;;;;;;;;20.33;49.46;100719.34;5130720;27;19966;-37
2022/11/08 01:23:39;;;;;;;;;;;;;;;20.34;49.33;100731.25;5110561;28;19923;-37
2022/11/08 01:26:05;;;;;;;;;;;;;;;20.34;49.64;100737.59;5111264;27;21009;-37
2022/11/08 01:28:31;;;;;;;;;;;;;;;20.34;49.56;100729.31;5128727;28;20452;-37
2022/11/08 01:31:01;;;;;;;;;;;;;;;20.33;49.47;100722.09;5127638;27;19963;-37
2022/11/08 01:33:26;;;;;;;;;;;;;;;20.34;49.54;100711.91;5109429;28;20425;-37
2022/11/08 01:35:52;;;;;;;;;;;;;;;20.34;49.42;100709.13;5127738;28;19928;-36
2022/11/08 01:38:17;;;;;;;;;;;;;;;20.34;49.51;100711.91;5128800;27;19927;-37
2022/11/08 01:40:44;;;;;;;;;;;;;;;20.33;49.48;100705.50;5126022;27;19923;-37
2022/11/08 01:43:29;;;;;;;;;;;;;;;20.34;49.63;100704.41;5129134;27;20397;-37
2022/11/08 01:46:15;;;;;;;;;;;;;;;20.34;49.19;100701.66;5124248;28;20294;-37
2022/11/08 01:48:41;;;;;;;;;;;;;;;20.34;49.66;100703.59;5113228;27;19924;-37
2022/11/08 01:51:07;;;;;;;;;;;;;;;20.34;49.56;100706.38;5129134;27;19983;-37
2022/11/08 01:53:32;;;;;;;;;;;;;;;20.33;49.68;100707.47;5130257;27;19931;-37
2022/11/08 01:55:58;;;;;;;;;;;;;;;20.34;49.50;100706.38;5122949;27;20359;-37
2022/11/08 01:58:25;;;;;;;;;;;;;;;20.34;49.46;100703.59;5126602;27;19931;-36
2022/11/08 02:00:50;;;;;;;;;;;;;;;20.33;49.56;100702.75;5111442;27;20038;-37
2022/11/08 02:03:16;;;;;;;;;;;;;;;20.33;49.50;100697.22;5132619;27;19928;-37
2022/11/08 02:05:42;;;;;;;;;;;;;;;20.34;49.56;100693.34;5127569;28;19927;-37
2022/11/08 02:08:27;;;;;;;;;;;;;;;20.34;49.30;100701.66;5128717;27;19928;-37
2022/11/08 02:10:53;;;;;;;;;;;;;;;20.33;49.51;100697.22;5119418;27;19952;-37
2022/11/08 02:13:19;;;;;;;;;;;;;;;20.33;49.57;100691.69;5110703;28;19923;-37
2022/11/08 02:15:45;;;;;;;;;;;;;;;20.33;49.40;100694.44;5106536;28;20010;-37
2022/11/08 02:18:11;;;;;;;;;;;;;;;20.33;49.50;100699.97;5128659;27;19972;-37
2022/11/08 02:20:36;;;;;;;;;;;;;;;20.34;49.64;100692.53;5129996;27;19966;-37
2022/11/08 02:23:09;;;;;;;;;;;;;;;20.33;49.40;100686.16;5130863;27;19927;-37
2022/11/08 02:25:34;;;;;;;;;;;;;;;20.34;49.58;100692.53;5112522;28;19977;-36
2022/11/08 02:28:00;;;;;;;;;;;;;;;20.33;49.24;100694.44;5128577;27;19923;-37
2022/11/08 02:30:39;;;;;;;;;;;;;;;20.33;49.34;100694.44;5128504;27;20444;-37
2022/11/08 02:33:21;;;;;;;;;;;;;;;20.34;49.32;100692.53;5130528;27;19953;-37
2022/11/08 02:35:47;;;;;;;;;;;;;;;20.32;49.49;100684.50;5127440;27;19967;-37
2022/11/08 02:38:12;;;;;;;;;;;;;;;20.34;49.53;100681.47;5127245;27;19962;-37
2022/11/08 02:40:54;;;;;;;;;;;;;;;20.32;49.56;100673.47;5127859;27;19959;-37
2022/11/08 02:43:20;;;;;;;;;;;;;;;20.32;49.51;100667.94;5110832;28;19950;-37
2022/11/08 02:45:45;;;;;;;;;;;;;;;20.33;49.31;100668.75;5123231;28;20263;-37
2022/11/08 02:48:11;;;;;;;;;;;;;;;20.33;49.53;100666.78;5107833;28;19975;-37
2022/11/08 02:50:37;;;;;;;;;;;;;;;20.33;49.54;100654.91;5110209;27;19923;-38
2022/11/08 02:53:02;;;;;;;;;;;;;;;20.32;49.48;100654.09;5125902;27;19930;-37
2022/11/08 02:55:28;;;;;;;;;;;;;;;20.32;49.51;100648.56;5125578;27;19930;-37
2022/11/08 02:57:54;;;;;;;;;;;;;;;20.33;49.65;100638.31;5125932;27;19924;-37
2022/11/08 03:00:19;;;;;;;;;;;;;;;20.33;49.46;100633.63;5111078;28;19923;-37
2022/11/08 03:02:50;;;;;;;;;;;;;;;20.33;49.54;100630.84;5128869;27;19923;-37
2022/11/08 03:05:16;;;;;;;;;;;;;;;20.33;49.36;100627.25;5128490;28;19924;-37
2022/11/08 03:07:42;;;;;;;;;;;;;;;20.33;49.71;100622.56;5127858;28;19967;-37
2022/11/08 03:10:08;;;;;;;;;;;;;;;20.33;49.43;100624.50;5127963;28;20014;-36
2022/11/08 03:12:33;;;;;;;;;;;;;;;20.33;49.34;100621.72;5127460;27;19927;-37
2022/11/08 03:14:59;;;;;;;;;;;;;;;20.33;49.33;100617.03;5127673;27;19930;-37
2022/11/08 03:17:24;;;;;;;;;;;;;;;20.33;49.39;100602.38;5126233;27;19939;-37
2022/11/08 03:19:50;;;;;;;;;;;;;;;20.33;49.50;100605.13;5129946;27;19946;-37
2022/11/08 03:22:15;;;;;;;;;;;;;;;20.33;49.61;100600.44;5123936;28;19928;-37
2022/11/08 03:24:41;;;;;;;;;;;;;;;20.33;49.46;100583.84;5126858;27;19979;-36
2022/11/08 03:27:07;;;;;;;;;;;;;;;20.33;49.21;100580.25;5128670;27;20383;-37
2022/11/08 03:29:32;;;;;;;;;;;;;;;20.33;49.54;100577.47;5129138;27;19968;-37
2022/11/08 03:31:58;;;;;;;;;;;;;;;20.33;49.50;100583.00;5127643;27;19939;-37
2022/11/08 03:34:23;;;;;;;;;;;;;;;20.33;49.37;100577.47;5127443;27;20398;-37
2022/11/08 03:36:49;;;;;;;;;;;;;;;20.32;49.56;100590.50;5128738;27;19932;-37
2022/11/08 03:39:14;;;;;;;;;;;;;;;20.32;49.48;100579.44;5124871;27;19924;-37
2022/11/08 03:41:40;;;;;;;;;;;;;;;20.32;49.51;100578.59;5127617;27;19927;-37
2022/11/08 03:44:05;;;;;;;;;;;;;;;20.32;49.49;100582.19;5126388;27;19931;-37
2022/11/08 03:46:31;;;;;;;;;;;;;;;20.32;49.53;100571.13;5127129;27;19927;-36
2022/11/08 03:48:56;;;;;;;;;;;;;;;20.31;49.66;100569.50;5125701;27;19923;-37
2022/11/08 03:51:22;;;;;;;;;;;;;;;20.32;49.62;100564.78;5126763;27;19931;-37
2022/11/08 03:53:48;;;;;;;;;;;;;;;20.33;49.54;100569.19;5127320;27;20366;-37
2022/11/08 03:56:13;;;;;;;;;;;;;;;20.33;49.50;100560.88;5129080;27;20143;-37
2022/11/08 03:58:39;;;;;;;;;;;;;;;20.33;49.46;100563.66;5126807;27;19968;-37
2022/11/08 04:01:05;;;;;;;;;;;;;;;20.33;49.56;100558.13;5127499;27;20069;-37
2022/11/08 04:03:30;;;;;;;;;;;;;;;20.32;49.25;100557.31;5127720;28;20018;-37
2022/11/08 04:05:58;;;;;;;;;;;;;;;20.33;49.50;100558.13;5106704;28;19927;-36
2022/11/08 04:08:23;;;;;;;;;;;;;;;20.31;49.39;100555.66;5124006;28;20417;-37
2022/11/08 04:10:49;;;;;;;;;;;;;;;20.32;49.48;100556.47;5129325;27;20085;-37
2022/11/08 04:16:00;;;;;;;;;;;;;;;20.32;49.41;100557.31;5109344;28;20026;-37
2022/11/08 04:21:21;;;;;;;;;;;;;;;20.32;49.37;100551.78;5110935;27;19966;-37
2022/11/08 04:23:47;;;;;;;;;;;;;;;20.32;49.37;100556.47;5108328;28;20380;-37
2022/11/08 04:26:13;;;;;;;;;;;;;;;20.32;49.52;100548.19;5125321;27;20073;-37
2022/11/08 04:28:39;;;;;;;;;;;;;;;20.33;49.49;100544.28;5107955;27;20303;-37
2022/11/08 04:31:06;;;;;;;;;;;;;;;20.32;49.30;100543.47;5125852;27;19963;-37
2022/11/08 04:33:31;;;;;;;;;;;;;;;20.31;49.57;100536.31;5124118;28;19978;-37
2022/11/08 04:36:01;;;;;;;;;;;;;;;20.32;49.65;100531.59;5122652;28;19988;-36
2022/11/08 04:38:27;;;;;;;;;;;;;;;20.32;49.40;100518.59;5124810;27;20473;-37
2022/11/08 04:40:57;;;;;;;;;;;;;;;20.33;49.65;100513.88;5130654;27;19935;-37
2022/11/08 04:43:22;;;;;;;;;;;;;;;20.32;49.42;100488.16;5130381;27;20026;-37
2022/11/08 04:45:48;;;;;;;;;;;;;;;20.33;49.41;100508.34;5123648;27;19927;-37
2022/11/08 04:48:13;;;;;;;;;;;;;;;20.32;49.52;100503.94;5129254;27;20359;-37
2022/11/08 04:50:39;;;;;;;;;;;;;;;20.31;49.48;100500.34;5130960;27;19927;-38
2022/11/08 04:53:04;;;;;;;;;;;;;;;20.31;49.48;100494.81;5132754;27;19930;-37
2022/11/08 04:55:30;;;;;;;;;;;;;;;20.32;49.51;100492.88;5127860;27;20298;-37
2022/11/08 04:57:56;;;;;;;;;;;;;;;20.31;49.53;100486.53;5129975;27;19924;-37
2022/11/08 05:00:21;;;;;;;;;;;;;;;20.32;49.52;100473.53;5108958;28;19925;-37
2022/11/08 05:02:47;;;;;;;;;;;;;;;20.32;49.42;100470.75;5129989;27;19924;-37
2022/11/08 05:05:12;;;;;;;;;;;;;;;20.32;49.39;100466.03;5129858;28;19935;-36
2022/11/08 05:07:38;;;;;;;;;;;;;;;20.32;49.48;100465.22;5129658;28;19927;-37
2022/11/08 05:10:04;;;;;;;;;;;;;;;20.32;49.48;100454.16;5128948;28;19935;-37
2022/11/08 05:12:29;;;;;;;;;;;;;;;20.32;49.74;100457.75;5130075;28;19966;-37
2022/11/08 05:14:55;;;;;;;;;;;;;;;20.32;49.38;100440.34;5124292;28;19951;-37
2022/11/08 05:17:20;;;;;;;;;;;;;;;20.31;49.40;100442.28;5128879;28;19942;-37
2022/11/08 05:25:17;;;;;;;;;;;;;;;20.31;49.49;100425.69;5113171;27;20391;-37
2022/11/08 05:27:42;;;;;;;;;;;;;;;20.32;49.25;100429.28;5128608;27;19930;-36
2022/11/08 05:30:08;;;;;;;;;;;;;;;20.31;49.48;100420.16;5128617;27;19996;-37
2022/11/08 05:32:34;;;;;;;;;;;;;;;20.32;49.58;100415.44;5128851;27;19934;-37
2022/11/08 05:34:59;;;;;;;;;;;;;;;20.31;49.51;100403.56;5130856;27;19937;-37
2022/11/08 05:37:25;;;;;;;;;;;;;;;20.32;49.56;100407.97;5128426;27;19931;-37
2022/11/08 05:39:50;;;;;;;;;;;;;;;20.32;49.40;100405.22;5128710;27;19932;-37
2022/11/08 05:42:16;;;;;;;;;;;;;;;20.33;49.49;100411.56;5127511;27;19931;-37
2022/11/08 05:44:42;;;;;;;;;;;;;;;20.32;49.38;100413.50;5129008;27;19989;-36
2022/11/08 05:47:07;;;;;;;;;;;;;;;20.33;49.45;100408.78;5125840;28;19931;-37
2022/11/08 05:49:33;;;;;;;;;;;;;;;20.32;49.38;100398.84;5129445;27;19923;-37
2022/11/08 05:51:58;;;;;;;;;;;;;;;20.32;49.59;100394.16;5128353;27;20367;-37
2022/11/08 05:54:24;;;;;;;;;;;;;;;20.32;49.35;100382.25;5124762;27;19932;-36
2022/11/08 05:56:49;;;;;;;;;;;;;;;20.31;49.48;100375.91;5125412;27;19962;-37
2022/11/08 05:59:15;;;;;;;;;;;;;;;20.30;49.51;100380.63;5129071;27;20399;-37
2022/11/08 06:01:41;;;;;;;;;;;;;;;20.32;49.37;100373.97;5124175;27;19930;-39
2022/11/08 06:04:07;;;;;;;;;;;;;;;20.32;49.43;100371.22;5122753;27;20191;-37
2022/11/08 06:06:32;;;;;;;;;;;;;;;20.32;49.57;100357.38;5125652;28;19923;-37
2022/11/08 06:08:58;;;;;;;;;;;;;;;20.30;49.35;100355.75;5123265;28;20177;-37
2022/11/08 06:11:24;;;;;;;;;;;;;;;20.32;49.52;100362.91;5128892;27;19981;-38
2022/11/08 06:13:50;;;;;;;;;;;;;;;20.31;49.53;100348.28;5102379;28;20333;-37
2022/11/08 06:16:16;;;;;;;;;;;;;;;20.31;49.38;100356.56;5122571;27;20112;-37
2022/11/08 06:18:41;;;;;;;;;;;;;;;20.31;49.41;100362.09;5121374;27;19935;-37
2022/11/08 06:21:09;;;;;;;;;;;;;;;20.31;49.51;100364.84;5125424;27;19947;-37
2022/11/08 06:23:34;;;;;;;;;;;;;;;20.31;49.52;100375.91;5122822;27;20029;-37
2022/11/08 06:26:00;;;;;;;;;;;;;;;20.33;49.42;100378.38;5107635;28;20025;-37
2022/11/08 06:28:26;;;;;;;;;;;;;;;20.32;49.49;100382.25;5122773;27;19935;-37
2022/11/08 06:30:51;;;;;;;;;;;;;;;20.30;49.40;100377.88;5118630;27;20327;-37
2022/11/08 06:33:17;;;;;;;;;;;;;;;20.32;49.47;100387.78;5121942;27;19931;-37
2022/11/08 06:35:43;;;;;;;;;;;;;;;20.30;49.60;100375.09;5119450;27;19930;-37
2022/11/08 06:38:09;;;;;;;;;;;;;;;20.31;49.30;100373.16;5121788;27;19924;-37
2022/11/08 06:40:36;;;;;;;;;;;;;;;20.32;48.86;100376.75;5118898;27;19927;-37
2022/11/08 06:43:01;;;;;;;;;;;;;;;20.32;49.55;100385.03;5120495;28;19961;-37
2022/11/08 06:45:27;;;;;;;;;;;;;;;20.30;49.36;100383.41;5120481;27;19923;-37
2022/11/08 06:47:56;;;;;;;;;;;;;;;20.32;49.51;100376.75;5124790;28;20268;-37
2022/11/08 06:50:22;;;;;;;;;;;;;;;20.30;49.48;100380.63;5128896;27;19950;-37
2022/11/08 06:52:53;;;;;;;;;;;;;;;20.32;49.57;100393.31;5118358;27;19935;-38
2022/11/08 06:55:19;;;;;;;;;;;;;;;20.32;49.45;100387.78;5093353;28;19989;-37
2022/11/08 06:57:44;;;;;;;;;;;;;;;20.32;49.19;100394.16;5110941;27;19928;-37
2022/11/08 07:00:10;;;;;;;;;;;;;;;20.34;49.54;100404.94;5118235;27;20434;-36
2022/11/08 07:02:36;;;;;;;;;;;;;;;20.33;48.69;100392.19;5104440;27;19976;-37
2022/11/08 07:05:02;;;;;;;;;;;;;;;20.34;49.00;100391.09;5113767;27;19932;-36
2022/11/08 07:07:27;;;;;;;;;;;;;;;20.32;49.04;100388.63;5114703;27;19936;-38
2022/11/08 07:09:53;;;;;;;;;;;;;;;20.32;49.28;100396.91;5114823;27;19934;-40
2022/11/08 07:12:18;;;;;;;;;;;;;;;20.32;49.56;100405.22;5117054;27;19950;-38
2022/11/08 07:14:44;;;;;;;;;;;;;;;20.32;49.60;100402.44;5118351;27;19931;-37
2022/11/08 07:17:09;;;;;;;;;;;;;;;20.32;49.49;100405.22;5116571;27;19980;-37
2022/11/08 07:19:35;;;;;;;;;;;;;;;20.32;49.31;100407.97;5123457;28;19923;-36
2022/11/08 07:22:00;;;;;;;;;;;;;;;20.33;49.42;100397.72;5116582;27;20306;-37
2022/11/08 07:24:26;;;;;;;;;;;;;;;20.32;49.26;100390.56;5119270;27;19938;-37
2022/11/08 07:26:52;;;;;;;;;;;;;;;20.33;49.55;100386.66;5121481;27;19981;-37
2022/11/08 07:29:17;;;;;;;;;;;;;;;20.31;49.19;100389.75;5123329;27;19946;-37
2022/11/08 07:31:43;;;;;;;;;;;;;;;20.32;49.46;100394.16;5121020;27;19931;-37
2022/11/08 07:34:08;;;;;;;;;;;;;;;20.30;49.60;100391.69;5112979;27;20287;-37
2022/11/08 07:36:34;;;;;;;;;;;;;;;20.28;47.75;100385.63;5116528;27;19940;-37
2022/11/08 07:38:59;;;;;;;;;;;;;;;20.32;48.89;100377.56;5105692;27;19927;-37
2022/11/08 07:41:31;;;;;;;;;;;;;;;20.32;49.21;100385.84;5122956;27;19923;-37
2022/11/08 07:43:57;;;;;;;;;;;;;;;20.33;49.15;100394.97;5116331;27;20320;-37
2022/11/08 07:46:22;;;;;;;;;;;;;;;20.34;49.28;100393.88;5115090;27;19927;-37
2022/11/08 07:48:48;;;;;;;;;;;;;;;20.34;49.19;100393.88;5114714;27;19927;-37
2022/11/08 07:51:13;;;;;;;;;;;;;;;20.34;49.29;100400.22;5111375;27;19965;-36
2022/11/08 07:53:39;;;;;;;;;;;;;;;20.34;49.07;100397.44;5111290;27;20436;-37
2022/11/08 07:56:05;;;;;;;;;;;;;;;20.35;49.05;100399.09;5110611;27;20014;-37
2022/11/08 07:58:30;;;;;;;;;;;;;;;20.36;49.04;100403.47;5108618;27;20103;-36
2022/11/08 08:00:59;;;;;;;;;;;;;;;20.36;48.61;100411.78;5106448;27;19934;-36
2022/11/08 08:03:24;;;;;;;;;;;;;;;20.36;48.19;100403.47;5109884;27;20015;-36
2022/11/08 08:05:51;;;;;;;;;;;;;;;20.38;48.48;100403.19;5093455;27;19931;-37
2022/11/08 08:08:21;;;;;;;;;;;;;;;20.38;48.39;100394.88;5084985;27;19967;-37
2022/11/08 08:10:47;;;;;;;;;;;;;;;20.39;48.33;100402.06;5107897;27;19938;-37
2022/11/08 08:13:13;;;;;;;;;;;;;;;20.39;48.18;100397.34;5106200;27;19932;-37
2022/11/08 08:15:38;;;;;;;;;;;;;;;20.38;48.42;100395.72;5112851;27;19931;-38
2022/11/08 08:18:04;;;;;;;;;;;;;;;20.39;48.29;100383.53;5117762;27;19927;-37
2022/11/08 08:20:30;;;;;;;;;;;;;;;20.22;47.30;100391.56;5119522;27;19988;-37
2022/11/08 08:22:55;;;;;;;;;;;;;;;20.33;47.77;100398.53;5106637;27;19982;-37
2022/11/08 08:25:21;;;;;;;;;;;;;;;20.37;47.72;100402.34;5120725;27;19932;-37
2022/11/08 08:27:47;;;;;;;;;;;;;;;20.39;47.74;100404.84;5097638;28;19931;-38
2022/11/08 08:30:13;;;;;;;;;;;;;;;20.39;47.79;100404.84;5102136;28;19967;-37
2022/11/08 08:32:39;;;;;;;;;;;;;;;20.41;48.17;100413.63;5122950;27;19923;-37
2022/11/08 08:35:04;;;;;;;;;;;;;;;20.42;47.96;100409.75;5118579;27;20066;-37
2022/11/08 08:37:30;;;;;;;;;;;;;;;20.42;47.93;100410.59;5118029;27;19931;-37
2022/11/08 08:39:55;;;;;;;;;;;;;;;20.41;48.49;100408.09;5125424;27;19930;-37
2022/11/08 08:42:21;;;;;;;;;;;;;;;20.43;48.10;100411.41;5121816;27;19931;-37
2022/11/08 08:44:46;;;;;;;;;;;;;;;20.43;48.33;100409.47;5117792;27;19927;-37
2022/11/08 08:47:12;;;;;;;;;;;;;;;20.43;48.47;100411.41;5116287;27;19931;-37
2022/11/08 08:49:37;;;;;;;;;;;;;;;20.43;48.60;100400.34;5121044;27;19992;-37
2022/11/08 08:52:03;;;;;;;;;;;;;;;20.43;48.64;100395.63;5127578;27;19937;-37
2022/11/08 08:54:29;;;;;;;;;;;;;;;20.44;48.77;100400.03;5117439;27;19931;-37
2022/11/08 08:56:54;;;;;;;;;;;;;;;20.44;48.67;100394.50;5123460;27;20661;-37
2022/11/08 08:59:20;;;;;;;;;;;;;;;20.45;48.58;100403.63;5114622;27;19953;-37
2022/11/08 09:02:07;;;;;;;;;;;;;;;20.45;48.04;100400.84;5104335;27;19931;-38
2022/11/08 09:04:32;;;;;;;;;;;;;;;20.45;48.34;100401.66;5098901;27;20610;-37
2022/11/08 09:06:58;;;;;;;;;;;;;;;20.46;48.77;100400.53;5098014;27;20406;-39
2022/11/08 09:09:24;;;;;;;;;;;;;;;20.46;48.33;100405.25;5111988;27;19924;-37
2022/11/08 09:11:49;;;;;;;;;;;;;;;20.46;48.51;100408.84;5098895;28;20520;-37
2022/11/08 09:14:15;;;;;;;;;;;;;;;20.46;48.11;100411.59;5113328;27;20412;-37
2022/11/08 09:16:40;;;;;;;;;;;;;;;20.46;48.19;100425.44;5121443;27;19976;-37
2022/11/08 09:19:06;;;;;;;;;;;;;;;20.46;48.45;100422.66;5120746;27;19931;-37
2022/11/08 09:21:31;;;;;;;;;;;;;;;20.48;48.34;100425.19;5120469;27;19931;-38
2022/11/08 09:23:57;;;;;;;;;;;;;;;20.47;48.61;100416.03;5111877;27;19924;-37
2022/11/08 09:26:23;;;;;;;;;;;;;;;20.49;48.56;100421.28;5114743;27;19927;-37
2022/11/08 09:28:48;;;;;;;;;;;;;;;20.48;48.14;100416.88;5108787;27;20291;-37
2022/11/08 09:31:14;;;;;;;;;;;;;;;20.49;48.51;100413.00;5106442;27;19932;-37
2022/11/08 09:33:40;;;;;;;;;;;;;;;20.50;48.51;100409.09;5108509;27;19932;-37
2022/11/08 09:36:07;;;;;;;;;;;;;;;20.50;48.47;100411.84;5083604;27;19966;-38
2022/11/08 09:38:32;;;;;;;;;;;;;;;20.48;48.79;100406.63;5102682;27;19939;-37
2022/11/08 09:41:02;;;;;;;;;;;;;;;20.49;48.21;100401.94;5089551;27;19983;-37
2022/11/08 09:43:38;;;;;;;;;;;;;;;20.48;48.42;100401.09;5111338;27;20034;-37
2022/11/08 09:46:06;;;;;;;;;;;;;;;20.48;48.32;100400.28;5097322;27;19979;-37
2022/11/08 09:48:33;;;;;;;;;;;;;;;20.47;48.25;100402.22;5120217;27;20334;-37
2022/11/08 09:51:00;;;;;;;;;;;;;;;20.47;48.42;100388.38;5114623;27;19984;-37
2022/11/08 09:53:33;;;;;;;;;;;;;;;20.47;48.61;100391.16;5116264;27;20537;-37
2022/11/08 09:56:02;;;;;;;;;;;;;;;20.49;48.67;100382.56;5119562;27;20022;-37
2022/11/08 09:58:31;;;;;;;;;;;;;;;20.47;48.16;100374.53;5119944;27;20327;-38
2022/11/08 10:00:57;;;;;;;;;;;;;;;20.48;48.81;100369.88;5099592;28;20454;-37
2022/11/08 10:03:23;;;;;;;;;;;;;;;20.47;48.75;100369.00;5119612;27;19976;-37
2022/11/08 10:05:52;;;;;;;;;;;;;;;20.47;48.53;100362.66;5098775;28;19927;-37
2022/11/08 10:08:21;;;;;;;;;;;;;;;20.47;48.45;100371.78;5111131;27;20029;-37
2022/11/08 10:10:54;;;;;;;;;;;;;;;20.48;48.73;100365.16;5116497;27;19978;-37
2022/11/08 10:13:27;;;;;;;;;;;;;;;20.47;48.58;100363.47;5097717;28;19959;-38
2022/11/08 10:15:56;;;;;;;;;;;;;;;20.47;48.57;100363.47;5119741;27;19977;-37
2022/11/08 10:18:30;;;;;;;;;;;;;;;20.47;48.68;100357.94;5116401;27;19962;-37
2022/11/08 10:21:16;;;;;;;;;;;;;;;20.48;48.16;100367.09;5099923;27;20387;-37
2022/11/08 10:23:42;;;;;;;;;;;;;;;20.47;47.98;100359.91;5103242;28;20344;-37
2022/11/08 10:26:11;;;;;;;;;;;;;;;20.47;48.54;100351.59;5121840;27;20318;-37
2022/11/08 10:28:39;;;;;;;;;;;;;;;20.47;48.78;100359.91;5112669;27;20979;-38
2022/11/08 10:31:04;;;;;;;;;;;;;;;20.46;48.31;100353.53;5115404;27;20371;-37
2022/11/08 10:33:33;;;;;;;;;;;;;;;20.48;48.52;100347.75;5112794;27;19928;-37
2022/11/08 10:36:02;;;;;;;;;;;;;;;20.47;48.59;100340.53;5108020;28;19963;-37
2022/11/08 10:38:37;;;;;;;;;;;;;;;20.48;48.36;100344.97;5084250;27;19980;-38
2022/11/08 10:41:06;;;;;;;;;;;;;;;20.47;48.66;100341.34;5104904;27;20030;-36
2022/11/08 10:43:33;;;;;;;;;;;;;;;20.48;48.39;100356.03;5106444;27;19998;-36
2022/11/08 10:45:58;;;;;;;;;;;;;;;20.48;48.49;100353.28;5095886;27;20308;-36
2022/11/08 10:48:24;;;;;;;;;;;;;;;20.46;48.37;100341.63;5107603;27;19934;-41
2022/11/08 10:50:50;;;;;;;;;;;;;;;20.42;48.08;100349.75;5114726;27;20341;-36
2022/11/08 10:53:19;;;;;;;;;;;;;;;20.48;48.04;100336.66;5078988;27;20039;-36
2022/11/08 10:55:45;;;;;;;;;;;;;;;20.46;48.45;100323.09;5103643;27;19923;-36
2022/11/08 10:58:27;;;;;;;;;;;;;;;20.47;48.20;100329.47;5099347;27;20030;-36
2022/11/08 11:01:01;;;;;;;;;;;;;;;20.48;48.60;100323.66;5110063;27;19971;-36
2022/11/08 11:03:29;;;;;;;;;;;;;;;20.48;47.73;100320.91;5084452;27;20018;-36
2022/11/08 11:05:57;;;;;;;;;;;;;;;20.49;48.09;100324.47;5110297;27;20010;-36
2022/11/08 11:08:24;;;;;;;;;;;;;;;20.49;48.06;100325.28;5092146;28;19971;-36
2022/11/08 11:10:49;;;;;;;;;;;;;;;20.49;48.54;100327.25;5096618;28;20023;-36
2022/11/08 11:13:20;;;;;;;;;;;;;;;20.49;48.06;100330.81;5111678;27;19932;-36
2022/11/08 11:16:02;;;;;;;;;;;;;;;20.49;48.39;100332.78;5093773;27;20380;-36
2022/11/08 11:18:32;;;;;;;;;;;;;;;20.49;48.30;100324.47;5114050;27;19938;-36
2022/11/08 11:20:59;;;;;;;;;;;;;;;20.49;48.40;100318.94;5098901;28;19966;-36
2022/11/08 11:23:31;;;;;;;;;;;;;;;20.50;48.06;100317.81;5088766;27;19981;-36
2022/11/08 11:25:56;;;;;;;;;;;;;;;20.51;48.28;100319.47;5089377;28;20351;-36
2022/11/08 11:28:22;;;;;;;;;;;;;;;20.50;48.30;100318.63;5110017;27;19931;-36
2022/11/08 11:30:53;;;;;;;;;;;;;;;20.51;47.98;100320.28;5113026;27;19928;-36
2022/11/08 11:33:22;;;;;;;;;;;;;;;20.51;48.18;100328.59;5110773;27;20281;-36
2022/11/08 11:35:49;;;;;;;;;;;;;;;20.52;47.83;100332.19;5111284;27;19938;-36
2022/11/08 11:38:35;;;;;;;;;;;;;;;20.51;47.93;100328.59;5112630;27;20010;-39
2022/11/08 11:41:03;;;;;;;;;;;;;;;20.52;47.86;100315.56;5101668;27;19971;-37
2022/11/08 11:43:37;;;;;;;;;;;;;;;20.53;47.83;100311.69;5090300;27;19980;-36
2022/11/08 11:46:07;;;;;;;;;;;;;;;20.53;48.11;100309.72;5103038;27;19989;-37
2022/11/08 11:48:35;;;;;;;;;;;;;;;20.53;48.28;100304.19;5104019;27;19964;-37
2022/11/08 11:51:00;;;;;;;;;;;;;;;20.54;48.18;100313.31;5101279;27;20061;-37
2022/11/08 11:53:29;;;;;;;;;;;;;;;20.53;48.15;100320.78;5096171;27;19938;-36
2022/11/08 11:56:14;;;;;;;;;;;;;;;20.54;48.13;100318.84;5110524;27;19968;-37
2022/11/08 11:58:43;;;;;;;;;;;;;;;20.56;48.11;100318.56;5086108;27;20041;-37
2022/11/08 12:01:30;;;;;;;;;;;;;;;20.56;47.99;100313.03;5113897;27;20821;-36
2022/11/08 12:04:04;;;;;;;;;;;;;;;20.56;47.94;100313.03;5116270;27;19923;-36
2022/11/08 12:06:33;;;;;;;;;;;;;;;20.55;47.93;100312.19;5111472;27;19966;-36
2022/11/08 12:09:04;;;;;;;;;;;;;;;20.54;48.06;100313.31;5110692;27;20367;-37
2022/11/08 12:14:23;;;;;;;;;;;;;;;20.55;48.10;100326.00;5148734;27;20317;-34
2022/11/08 12:16:55;;;;;;;;;;;;;;;20.53;48.15;100329.09;5143479;27;20082;-35
2022/11/08 12:19:25;;;;;;;;;;;;;;;20.53;48.39;100331.84;5150322;27;19958;-35
2022/11/08 12:21:55;;;;;;;;;;;;;;;20.52;48.54;100321.94;5146833;27;19977;-34
2022/11/08 12:24:23;;;;;;;;;;;;;;;20.53;48.37;100328.28;5156423;27;20017;-34
2022/11/08 12:26:55;;;;;;;;;;;;;;;20.52;48.38;100330.22;5151400;27;19975;-34
2022/11/08 12:29:26;;;;;;;;;;;;;;;20.55;48.05;100337.06;5136355;27;19971;-34
2022/11/08 12:32:03;;;;;;;;;;;;;;;20.74;47.69;100331.50;5127157;27;20048;-34
2022/11/08 12:34:31;;;;;;;;;;;;;;;20.67;48.18;100325.53;5151876;27;20116;-33
2022/11/08 12:37:01;;;;;;;;;;;;;;;20.61;48.28;100324.81;5144991;27;20394;-34
2022/11/08 12:39:30;;;;;;;;;;;;;;;20.61;48.28;100310.16;5144806;27;19962;-34
2022/11/08 12:44:44;;;;;;;;;;;;;;;20.60;48.37;100300.22;5146585;27;19953;-34
2022/11/08 12:47:29;;;;;;;;;;;;;;;20.61;48.04;100294.38;5139050;27;19923;-33
2022/11/08 12:50:08;;;;;;;;;;;;;;;20.61;48.33;100286.06;5126242;27;20387;-34
2022/11/08 12:55:12;;;;;;;;;;;;;;;20.61;47.64;100263.13;5141208;27;20028;-35
2022/11/08 12:57:38;;;;;;;;;;;;;;;20.61;47.80;100252.06;5131508;27;19938;-34
2022/11/08 13:00:05;;;;;;;;;;;;;;;20.60;48.34;100253.19;5130860;27;19932;-34
2022/11/08 13:02:32;;;;;;;;;;;;;;;20.59;48.27;100255.13;5134138;27;19978;-34
2022/11/08 13:05:00;;;;;;;;;;;;;;;20.61;48.37;100255.66;5132236;27;19970;-34